createdAt,value
2019-03-23T00:04:33.485Z,11.80
2019-03-23T00:10:06.969Z,13.70
2019-03-23T00:15:36.680Z,12.97
2019-03-23T00:21:07.722Z,12.43
2019-03-23T00:26:37.179Z,12.10
2019-03-23T00:32:06.872Z,11.93
2019-03-23T00:37:36.809Z,12.23
2019-03-23T00:43:06.514Z,11.90
2019-03-23T00:48:35.932Z,12.97
2019-03-23T00:54:05.375Z,11.90
2019-03-23T00:59:34.895Z,11.73
2019-03-23T01:05:05.878Z,10.00
2019-03-23T01:10:35.357Z,11.30
2019-03-23T01:16:04.833Z,10.40
2019-03-23T01:21:34.175Z,11.50
2019-03-23T01:27:03.595Z,10.40
2019-03-23T01:32:32.918Z,11.83
2019-03-23T01:38:02.432Z,11.67
2019-03-23T01:43:31.841Z,12.00
2019-03-23T01:49:01.380Z,11.20
2019-03-23T01:54:30.766Z,11.50
2019-03-23T02:00:00.416Z,10.30
2019-03-23T02:05:29.912Z,11.37
2019-03-23T02:11:04.360Z,9.83
2019-03-23T02:16:33.749Z,10.20
2019-03-23T02:22:03.223Z,11.00
2019-03-23T02:27:32.871Z,10.77
2019-03-23T02:33:02.253Z,11.27
2019-03-23T02:38:31.950Z,10.67
2019-03-23T02:44:01.545Z,11.13
2019-03-23T02:49:30.993Z,10.70
2019-03-23T02:55:00.534Z,10.33
2019-03-23T03:00:30.029Z,11.10
2019-03-23T03:05:59.544Z,10.30
2019-03-23T03:11:28.974Z,11.13
2019-03-23T03:16:58.484Z,11.70
2019-03-23T03:22:28.046Z,10.80
2019-03-23T03:27:57.565Z,10.40
2019-03-23T03:33:27.103Z,10.80
2019-03-23T03:39:02.736Z,9.80
2019-03-23T03:44:32.193Z,9.80
2019-03-23T03:50:01.739Z,8.43
2019-03-23T03:55:31.302Z,10.00
2019-03-23T04:01:01.629Z,8.70
2019-03-23T04:06:31.179Z,9.90
2019-03-23T04:12:03.992Z,10.07
2019-03-23T04:17:33.808Z,9.60
2019-03-23T04:23:05.083Z,10.57
2019-03-23T04:28:34.406Z,9.57
2019-03-23T04:34:03.744Z,11.80
2019-03-23T04:39:33.195Z,10.10
2019-03-23T04:45:02.521Z,9.17
2019-03-23T04:50:32.009Z,8.43
2019-03-23T04:56:01.345Z,9.40
2019-03-23T05:01:30.917Z,7.97
2019-03-23T05:07:00.442Z,10.00
2019-03-23T05:12:29.918Z,9.80
2019-03-23T05:17:59.361Z,9.00
2019-03-23T05:23:28.907Z,9.00
2019-03-23T05:28:58.383Z,10.03
2019-03-23T05:34:27.920Z,8.80
2019-03-23T05:39:57.364Z,8.37
2019-03-23T05:45:26.915Z,8.97
2019-03-23T05:50:56.472Z,9.37
2019-03-23T05:56:26.129Z,8.57
2019-03-23T06:01:57.984Z,8.50
2019-03-23T06:07:27.641Z,8.80
2019-03-23T06:12:57.225Z,8.67
2019-03-23T06:18:27.788Z,8.07
2019-03-23T06:23:57.348Z,8.00
2019-03-23T06:29:26.775Z,7.57
2019-03-23T06:34:56.313Z,8.00
2019-03-23T06:40:25.969Z,7.73
2019-03-23T06:45:55.399Z,7.93
2019-03-23T06:51:24.932Z,7.10
2019-03-23T06:56:54.558Z,7.90
2019-03-23T07:02:24.218Z,6.17
2019-03-23T07:07:53.717Z,6.70
2019-03-23T07:13:23.328Z,7.10
2019-03-23T07:18:52.872Z,7.53
2019-03-23T07:24:23.201Z,6.80
2019-03-23T07:29:52.658Z,7.60
2019-03-23T07:35:22.141Z,6.90
2019-03-23T07:40:51.697Z,7.00
2019-03-23T07:46:21.187Z,7.00
2019-03-23T07:51:50.819Z,6.97
2019-03-23T07:57:21.149Z,6.57
2019-03-23T08:02:50.694Z,7.20
2019-03-23T08:08:20.016Z,6.83
2019-03-23T08:13:49.529Z,8.00
2019-03-23T08:19:19.074Z,7.80
2019-03-23T08:24:49.091Z,8.80
2019-03-23T08:30:19.296Z,9.10
2019-03-23T08:35:49.664Z,11.13
2019-03-23T08:41:19.458Z,11.20
2019-03-23T08:46:49.031Z,13.13
2019-03-23T08:52:18.557Z,12.00
2019-03-23T08:57:47.930Z,11.70
2019-03-23T09:03:17.287Z,13.30
2019-03-23T09:08:46.708Z,12.50
2019-03-23T09:14:16.237Z,11.90
2019-03-23T09:19:45.831Z,13.47
2019-03-23T09:25:15.348Z,12.80
2019-03-23T09:30:44.817Z,14.60
2019-03-23T09:36:14.440Z,16.27
2019-03-23T09:41:43.968Z,15.93
2019-03-23T09:47:13.596Z,16.40
2019-03-23T09:52:43.164Z,15.80
2019-03-23T09:58:13.853Z,17.50
2019-03-23T10:03:43.757Z,16.50
2019-03-23T10:09:13.111Z,16.83
2019-03-23T10:14:42.743Z,17.93
2019-03-23T10:20:13.153Z,17.70
2019-03-23T10:25:42.668Z,17.70
2019-03-23T10:31:12.312Z,18.40
2019-03-23T10:36:42.134Z,18.87
2019-03-23T10:42:11.841Z,19.53
2019-03-23T10:47:41.623Z,20.40
2019-03-23T10:53:11.273Z,20.63
2019-03-23T10:58:40.840Z,20.03
2019-03-23T11:04:10.738Z,18.73
2019-03-23T11:09:40.206Z,19.70
2019-03-23T11:15:11.485Z,18.50
2019-03-23T11:20:41.129Z,19.57
2019-03-23T11:26:11.824Z,20.60
2019-03-23T11:31:44.960Z,20.40
2019-03-23T11:37:14.530Z,19.43
2019-03-23T11:42:50.012Z,20.30
2019-03-23T11:48:15.496Z,20.97
2019-03-23T11:53:45.555Z,18.03
2019-03-23T11:59:15.089Z,18.77
2019-03-23T12:04:44.644Z,17.97
2019-03-23T12:10:14.818Z,18.83
2019-03-23T12:15:44.591Z,14.47
2019-03-23T12:21:14.218Z,14.83
2019-03-23T12:26:43.503Z,17.17
2019-03-23T12:32:13.340Z,19.10
2019-03-23T12:37:42.898Z,18.20
2019-03-23T12:43:15.033Z,21.70
2019-03-23T12:48:45.606Z,22.27
2019-03-23T12:54:17.117Z,22.30
2019-03-23T12:59:47.933Z,19.93
2019-03-23T13:05:17.670Z,21.33
2019-03-23T13:10:47.198Z,21.33
2019-03-23T13:16:16.837Z,22.27
2019-03-23T13:21:46.365Z,22.50
2019-03-23T13:27:15.852Z,21.27
2019-03-23T13:32:45.392Z,22.93
2019-03-23T13:38:16.092Z,23.53
2019-03-23T13:43:45.807Z,23.80
2019-03-23T13:49:15.364Z,22.47
2019-03-23T13:54:45.388Z,22.80
2019-03-23T14:00:17.501Z,22.03
2019-03-23T14:05:46.932Z,21.47
2019-03-23T14:11:16.563Z,22.20
2019-03-23T14:16:46.249Z,22.20
2019-03-23T14:22:16.139Z,22.90
2019-03-23T14:27:59.579Z,21.80
2019-03-23T14:33:29.046Z,22.47
2019-03-23T14:38:58.480Z,23.27
2019-03-23T14:44:35.344Z,23.10
2019-03-23T14:50:07.257Z,23.63
2019-03-23T14:55:37.563Z,22.87
2019-03-23T15:01:08.711Z,22.07
2019-03-23T15:06:38.477Z,23.03
2019-03-23T15:12:14.920Z,24.60
2019-03-23T15:17:48.422Z,24.70
2019-03-23T15:23:10.655Z,28.50
2019-03-23T15:28:40.415Z,25.37
2019-03-23T15:34:13.854Z,25.73
2019-03-23T15:39:43.414Z,27.67
2019-03-23T15:45:12.998Z,27.23
2019-03-23T15:50:42.509Z,28.03
2019-03-23T15:56:12.065Z,28.53
2019-03-23T16:01:42.545Z,27.17
2019-03-23T16:07:11.934Z,29.63
2019-03-23T16:12:42.397Z,26.80
2019-03-23T16:18:11.840Z,26.27
2019-03-23T16:23:41.295Z,26.67
2019-03-23T16:29:10.686Z,26.27
2019-03-23T16:34:40.038Z,27.20
2019-03-23T16:40:11.085Z,27.03
2019-03-23T16:45:42.172Z,26.13
2019-03-23T16:51:11.646Z,25.43
2019-03-23T16:56:41.117Z,28.37
2019-03-23T17:02:11.408Z,26.27
2019-03-23T17:07:41.348Z,26.47
2019-03-23T17:13:10.765Z,25.97
2019-03-23T17:18:40.205Z,28.53
2019-03-23T17:24:10.869Z,28.17
2019-03-23T17:29:40.510Z,27.43
2019-03-23T17:35:10.059Z,27.17
2019-03-23T17:40:44.384Z,28.10
2019-03-23T17:46:13.735Z,28.10
2019-03-23T17:51:43.250Z,27.67
2019-03-23T17:57:13.120Z,28.07
2019-03-23T18:02:42.397Z,26.53
2019-03-23T18:08:11.818Z,25.10
2019-03-23T18:13:41.435Z,26.40
2019-03-23T18:19:10.779Z,25.43
2019-03-23T18:24:40.339Z,27.40
2019-03-23T18:30:41.893Z,29.67
2019-03-23T18:36:14.405Z,26.50
2019-03-23T18:41:43.867Z,24.20
2019-03-23T18:47:13.282Z,28.37
2019-03-23T18:52:43.045Z,27.77
2019-03-23T18:58:12.862Z,27.43
2019-03-23T19:03:42.472Z,31.43
2019-03-23T19:09:11.947Z,30.23
2019-03-23T19:14:42.370Z,34.10
2019-03-23T19:20:11.787Z,33.70
2019-03-23T19:25:41.162Z,33.63
2019-03-23T19:31:10.582Z,32.20
2019-03-23T19:36:40.009Z,35.07
2019-03-23T19:42:09.574Z,37.63
2019-03-23T19:47:39.054Z,34.13
2019-03-23T19:53:08.532Z,36.93
2019-03-23T19:58:38.002Z,35.37
2019-03-23T20:04:07.602Z,31.10
2019-03-23T20:09:37.067Z,32.33
2019-03-23T20:15:09.405Z,36.37
2019-03-23T20:20:38.912Z,35.90
2019-03-23T20:26:08.409Z,34.60
2019-03-23T20:31:37.884Z,35.87
2019-03-23T20:37:08.482Z,33.43
2019-03-23T20:42:38.404Z,31.73
2019-03-23T20:48:08.174Z,33.13
2019-03-23T20:53:38.073Z,32.57
2019-03-23T20:59:07.842Z,28.30
2019-03-23T21:04:37.851Z,28.53
2019-03-23T21:10:07.658Z,27.10
2019-03-23T21:15:37.114Z,28.40
2019-03-23T21:21:07.014Z,27.73
2019-03-23T21:26:36.475Z,26.70
2019-03-23T21:32:06.070Z,27.77
2019-03-23T21:37:35.641Z,27.57
2019-03-23T21:43:05.341Z,27.70
2019-03-23T21:48:35.050Z,23.90
2019-03-23T21:54:07.847Z,23.37
2019-03-23T21:59:38.012Z,24.40
2019-03-23T22:05:09.230Z,25.23
2019-03-23T22:10:38.880Z,23.37
2019-03-23T22:16:08.407Z,23.63
2019-03-23T22:21:37.872Z,21.67
2019-03-23T22:27:08.312Z,22.40
2019-03-23T22:32:37.697Z,21.50
2019-03-23T22:38:07.284Z,21.37
2019-03-23T22:43:36.888Z,19.70
2019-03-23T22:49:06.356Z,22.13
2019-03-23T22:54:35.950Z,77.73
2019-03-23T23:00:17.142Z,21.30
2019-03-23T23:05:46.618Z,20.00
2019-03-23T23:11:16.039Z,22.43
2019-03-23T23:16:45.413Z,20.60
2019-03-23T23:22:15.760Z,20.40
2019-03-23T23:27:45.185Z,20.27
2019-03-23T23:33:14.507Z,20.77
2019-03-23T23:38:43.905Z,22.30
2019-03-23T23:44:13.280Z,21.00
2019-03-23T23:49:42.816Z,19.60
2019-03-23T23:55:12.286Z,20.10
